メインページ
METAR-TAF:

METAR-TAF

空港 :

キュラソー島, オランダ領アンティル

ハト国際空港

緯度: 12-12N, 経度: 068-58W, 海抜: 9m

現時点の気象観測

当レポートは36分前の21:00(UTC)に作成
の風 13kt
気温 29°C
湿度 74%
気圧 1007 hPa
視程10km以上
1,500メートル以下は雲なし、積乱雲なし

METAR: TNCC 232100Z 09013KT CAVOK 29/24 Q1007 NOSIG

時間: 17:36 (21:36 UTC)

予報

当レポートは6時間1分前の15:35(UTC)に作成
予報は23日の 18時(UTC)から 24日の 18時(UTC)まで有効
の風 14kt
視程10km以上
高度2000ftの雲は散在している

TAF: TNCC 231535Z 2318/2418 10014KT 9999 SCT020

4,000以上の空港の気象観測と天気予報(METAR報とTAF報)

利用可能な観測所は地図上に黄色い丸と赤い丸で示す。

丸の上にカーソルを重ねると観測所名を参照できる。

次にクリックすると気象観測と天気予報を参照できる。

マップの切り替え:黒色「×」印の緑ボタンをクリックして拡大、「-」印の緑ボタンをクリックして縮小、緑色の三角印をクリックして隣りの地図に切り替え


METAR-TAF: